Aérodrome :
LOGIN :

S'inscrire | Disclaimer

   EN    FR    IT 

 










Légende :    VFR   VFR Marginal   IFR   IFR Intensif   IFR Très Intensif
Visi : 
Plafond : 
>= 8 km
>= 3000ft
5 à 8 km
1000 à 3000 ft
1500m à 5 km
500 à 1000 ft
800 à 1500m
200 à 500 ft
< 800m
< 200 ft
Symboles :   Orages  Brouillard  Fortes neiges  Fortes précipitations  Vent > 20 kt
SIGMETs :   Divers  Orages  Givrage  Turbulence  Onde Orograph.  Cendres Volcan.






- Altitude de l'aérodrome : 194 ft
- Code IATA : ANE


LFJR - Angers Marcé

DERNIER METAR :
  • 150200Z AUTO 21016G29KT 9999 BKN017/// OVC038/// ///CB 12/09 Q1001

METARs EXPIRÉS :
  • 150130Z AUTO 22016G26KT 9999 OVC018 12/09 Q1001
  • 150100Z AUTO 21016KT 9999 BKN020 OVC025 12/08 Q1000
  • 150030Z AUTO 21018KT 9999 BKN021/// BKN027/// OVC034/// ///TCU 11/08 Q1000
  • 150000Z AUTO 21015KT 180V240 9999 FEW031 OVC088 11/08 Q1000
  • 142330Z AUTO 20015KT 9999 FEW016 BKN072 OVC082 11/09 Q1000

Prévision TAF périmée.



MET'MAP, la Météo Aéronautique d'un coup d'oeil ! - Copyright ORBIFLY Décembre 2007 - Disclaimer

ORBIFLY MET'MAP TEAM :

Programmation & Développement : Alexandra Zaïnal
Sur une idée originale de : Baudouin d'Aumeries
Assistance à la programmation : Marc-Olivier Méhu
Soutien technique & logistique : Manuel Goepfert

Contact : metmap@orbifly.com




SOURCES & CREDITS :

   NOAA